Time;durP1;ratioP1;P1;durP2;ratioP2;P2;SDS_P1;SDS_P2;PMS_P1;PMS_P2;Temp;Humidity;BMP_temperature;BMP_pressure;BME280_temperature;BME280_humidity;BME280_pressure;Samples;Min_cycle;Max_cycle;Signal;HPM_P1;HPM_P2
2022/10/25 00:02:13;;;;;;;;;1.67;0.67;;;;;-147.17;100.00;-15917.19;5049871;28;51207;-43
2022/10/25 00:04:38;;;;;;;;;2.00;1.67;;;;;-147.17;100.00;-15917.19;5052348;28;51207;-42
2022/10/25 00:07:04;;;;;;;;;3.33;3.00;;;;;-147.17;100.00;-15917.19;5048781;28;51327;-42
2022/10/25 00:09:29;;;;;;;;;1.00;1.00;;;;;-147.17;100.00;-15917.19;5051511;28;57257;-41
2022/10/25 00:11:54;;;;;;;;;1.00;1.00;;;;;-147.17;100.00;-15917.19;5045887;28;51190;-42
2022/10/25 00:14:20;;;;;;;;;1.00;1.00;;;;;-147.17;100.00;-15917.19;5049782;28;51149;-41
2022/10/25 00:16:45;;;;;;;;;1.00;1.00;;;;;-147.17;100.00;-15917.19;5046984;28;51235;-42
2022/10/25 00:19:10;;;;;;;;;2.67;1.33;;;;;-147.17;100.00;-15917.19;5051758;28;51735;-42
2022/10/25 00:21:36;;;;;;;;;1.67;1.00;;;;;-147.17;100.00;-15917.19;5051514;28;51063;-42
2022/10/25 00:24:02;;;;;;;;;3.00;2.00;;;;;-147.17;100.00;-15917.19;5051815;28;52007;-42
2022/10/25 00:26:27;;;;;;;;;1.33;1.33;;;;;-147.17;100.00;-15917.19;5051324;28;51444;-42
2022/10/25 00:28:54;;;;;;;;;2.00;2.00;;;;;-147.17;100.00;-15917.19;5052644;28;55132;-43
2022/10/25 00:31:20;;;;;;;;;2.00;2.00;;;;;-147.17;100.00;-15917.19;5044803;28;51114;-43
2022/10/25 00:33:45;;;;;;;;;2.00;1.67;;;;;-147.17;100.00;-15917.19;5052069;28;51466;-43
2022/10/25 00:36:20;;;;;;;;;2.00;2.00;;;;;-147.17;100.00;-15917.19;5052068;28;51242;-43
2022/10/25 00:38:46;;;;;;;;;2.33;1.67;;;;;-147.17;100.00;-15917.19;5050404;28;52007;-42
2022/10/25 00:41:22;;;;;;;;;1.00;0.00;;;;;-147.17;100.00;-15917.19;5052263;28;51051;-41
2022/10/25 00:43:50;;;;;;;;;2.00;2.00;;;;;-147.17;100.00;-15917.19;5041974;28;51206;-42
2022/10/25 00:46:24;;;;;;;;;2.00;1.00;;;;;-147.17;100.00;-15917.19;5050949;28;51163;-42
2022/10/25 00:49:00;;;;;;;;;2.00;1.67;;;;;-147.17;100.00;-15917.19;5045240;28;53155;-43
2022/10/25 00:51:36;;;;;;;;;2.00;2.00;;;;;-147.17;100.00;-15917.19;5049884;28;51099;-43
2022/10/25 00:54:02;;;;;;;;;2.33;1.00;;;;;-147.17;100.00;-15917.19;5051822;28;51299;-43
2022/10/25 00:56:32;;;;;;;;;1.33;1.00;;;;;-147.17;100.00;-15917.19;5034219;28;50958;-42
2022/10/25 00:59:02;;;;;;;;;4.00;2.00;;;;;-147.17;100.00;-15917.19;5052639;28;52148;-43
2022/10/25 01:01:28;;;;;;;;;2.33;2.00;;;;;-147.17;100.00;-15917.19;5048313;28;51130;-43
2022/10/25 01:03:56;;;;;;;;;0.00;0.00;;;;;-147.17;100.00;-15917.19;5051286;28;51163;-43
2022/10/25 01:06:30;;;;;;;;;4.00;2.33;;;;;-147.17;100.00;-15917.19;5049220;28;51176;-43
2022/10/25 01:08:56;;;;;;;;;1.00;1.00;;;;;-147.17;100.00;-15917.19;5052832;28;51761;-43
2022/10/25 01:11:21;;;;;;;;;2.00;1.33;;;;;-147.17;100.00;-15917.19;5050439;28;51170;-42
2022/10/25 01:13:48;;;;;;;;;3.00;2.00;;;;;-147.17;100.00;-15917.19;5049930;28;51303;-42
2022/10/25 01:16:32;;;;;;;;;1.00;1.00;;;;;-147.17;100.00;-15917.19;5047883;28;50979;-42
2022/10/25 01:19:20;;;;;;;;;3.67;2.67;;;;;-147.17;100.00;-15917.19;5051423;28;50996;-42
2022/10/25 01:21:55;;;;;;;;;2.67;1.33;;;;;-147.17;100.00;-15917.19;5047116;28;51132;-42
2022/10/25 01:24:50;;;;;;;;;3.33;2.67;;;;;-147.17;100.00;-15917.19;5049999;28;51286;-42
2022/10/25 01:27:37;;;;;;;;;2.33;2.33;;;;;-147.17;100.00;-15917.19;5042910;28;51612;-41
2022/10/25 01:30:02;;;;;;;;;4.00;2.00;;;;;-147.17;100.00;-15917.19;5049128;28;52865;-42
2022/10/25 01:32:30;;;;;;;;;2.67;2.00;;;;;-147.17;100.00;-15917.19;5050226;28;51079;-42
2022/10/25 01:35:03;;;;;;;;;2.00;1.00;;;;;-147.17;100.00;-15917.19;5044087;28;51148;-42
2022/10/25 01:37:40;;;;;;;;;4.33;2.00;;;;;-147.17;100.00;-15917.19;5051033;28;51079;-41
2022/10/25 01:40:20;;;;;;;;;3.33;3.00;;;;;-147.17;100.00;-15917.19;5047789;28;53276;-42
2022/10/25 01:42:48;;;;;;;;;2.00;1.33;;;;;-147.17;100.00;-15917.19;5044428;28;51300;-42
2022/10/25 01:45:29;;;;;;;;;2.00;1.00;;;;;-147.17;100.00;-15917.19;5050441;28;51021;-43
2022/10/25 01:48:32;;;;;;;;;1.00;1.00;;;;;-147.17;100.00;-15917.19;5028944;28;51044;-43
2022/10/25 01:51:05;;;;;;;;;3.00;2.67;;;;;-147.17;100.00;-15917.19;4944754;28;54098;-43
2022/10/25 01:53:30;;;;;;;;;2.00;1.33;;;;;-147.17;100.00;-15917.19;5045294;28;50991;-43
2022/10/25 01:55:59;;;;;;;;;1.33;1.00;;;;;-147.17;100.00;-15917.19;5051819;28;51105;-43
2022/10/25 01:58:49;;;;;;;;;1.00;1.00;;;;;-147.17;100.00;-15917.19;5049253;28;51137;-43
2022/10/25 02:01:17;;;;;;;;;1.33;1.00;;;;;-147.17;100.00;-15917.19;5045085;28;52018;-42
2022/10/25 02:03:54;;;;;;;;;2.00;2.00;;;;;-147.17;100.00;-15917.19;5045588;28;50887;-42
2022/10/25 02:06:42;;;;;;;;;1.00;1.00;;;;;-147.17;100.00;-15917.19;5050880;28;51002;-43
2022/10/25 02:09:19;;;;;;;;;3.00;2.00;;;;;-147.17;100.00;-15917.19;5033322;28;51310;-42
2022/10/25 02:11:46;;;;;;;;;1.33;1.00;;;;;-147.17;100.00;-15917.19;5048783;28;52247;-41
2022/10/25 02:14:33;;;;;;;;;1.67;1.67;;;;;-147.17;100.00;-15917.19;5050038;28;51156;-42
2022/10/25 02:17:12;;;;;;;;;2.00;2.00;;;;;-147.17;100.00;-15917.19;5045918;28;50944;-43
2022/10/25 02:19:44;;;;;;;;;2.33;1.00;;;;;-147.17;100.00;-15917.19;5054865;28;51172;-43
2022/10/25 02:22:12;;;;;;;;;1.67;1.00;;;;;-147.17;100.00;-15917.19;5036643;28;54076;-44
2022/10/25 02:24:41;;;;;;;;;2.00;1.00;;;;;-147.17;100.00;-15917.19;5054311;28;50965;-43
2022/10/25 02:27:09;;;;;;;;;2.00;2.00;;;;;-147.17;100.00;-15917.19;5052580;28;51049;-43
2022/10/25 02:29:36;;;;;;;;;1.00;1.00;;;;;-147.17;100.00;-15917.19;5055424;28;51282;-42
2022/10/25 02:32:03;;;;;;;;;2.00;1.00;;;;;-147.17;100.00;-15917.19;5044046;28;52142;-43
2022/10/25 02:34:29;;;;;;;;;2.33;1.00;;;;;-147.17;100.00;-15917.19;5053161;28;51136;-42
2022/10/25 02:36:55;;;;;;;;;2.33;1.00;;;;;-147.17;100.00;-15917.19;5052401;28;51127;-44
2022/10/25 02:39:22;;;;;;;;;3.00;1.67;;;;;-147.17;100.00;-15917.19;5053701;28;51285;-43
2022/10/25 02:41:47;;;;;;;;;2.00;1.67;;;;;-147.17;100.00;-15917.19;5052242;28;52977;-42
2022/10/25 02:44:13;;;;;;;;;2.00;2.00;;;;;-147.17;100.00;-15917.19;5054114;28;57129;-43
2022/10/25 02:46:39;;;;;;;;;1.00;1.00;;;;;-147.17;100.00;-15917.19;5049780;28;51081;-42
2022/10/25 02:49:04;;;;;;;;;1.00;1.00;;;;;-147.17;100.00;-15917.19;5054011;28;51305;-42
2022/10/25 02:51:30;;;;;;;;;2.00;2.00;;;;;-147.17;100.00;-15917.19;5050734;28;51843;-42
2022/10/25 02:53:55;;;;;;;;;1.67;1.67;;;;;-147.17;100.00;-15917.19;5054459;28;51125;-42
2022/10/25 02:56:22;;;;;;;;;1.00;1.00;;;;;-147.17;100.00;-15917.19;5054134;28;51361;-42
2022/10/25 02:58:50;;;;;;;;;3.00;2.00;;;;;-147.17;100.00;-15917.19;5051694;28;51497;-42
2022/10/25 03:01:18;;;;;;;;;1.00;1.00;;;;;-147.17;100.00;-15917.19;5051652;28;51154;-41
2022/10/25 03:03:44;;;;;;;;;1.00;1.00;;;;;-147.17;100.00;-15917.19;5049320;28;52436;-42
2022/10/25 03:06:11;;;;;;;;;1.00;1.00;;;;;-147.17;100.00;-15917.19;5038834;28;51119;-42
2022/10/25 03:08:38;;;;;;;;;2.00;2.00;;;;;-147.17;100.00;-15917.19;5037264;28;51032;-42
2022/10/25 03:11:04;;;;;;;;;2.00;2.00;;;;;-147.17;100.00;-15917.19;5051214;28;52118;-41
2022/10/25 03:13:30;;;;;;;;;1.00;1.00;;;;;-147.17;100.00;-15917.19;5037680;28;51255;-43
2022/10/25 03:15:55;;;;;;;;;1.00;1.00;;;;;-147.17;100.00;-15917.19;5056192;28;51084;-41
2022/10/25 03:18:21;;;;;;;;;2.00;2.00;;;;;-147.17;100.00;-15917.19;5058474;28;51068;-41
2022/10/25 03:20:47;;;;;;;;;2.00;1.67;;;;;-147.17;100.00;-15917.19;5053037;28;51526;-43
2022/10/25 03:23:13;;;;;;;;;2.00;2.00;;;;;-147.17;100.00;-15917.19;5048627;28;51683;-43
2022/10/25 03:25:39;;;;;;;;;3.33;3.00;;;;;-147.17;100.00;-15917.19;5051815;28;51090;-42
2022/10/25 03:28:04;;;;;;;;;1.67;1.00;;;;;-147.17;100.00;-15917.19;5049736;28;51395;-42
2022/10/25 03:30:30;;;;;;;;;1.00;1.00;;;;;-147.17;100.00;-15917.19;5049933;28;51909;-43
2022/10/25 03:32:56;;;;;;;;;2.00;1.67;;;;;-147.17;100.00;-15917.19;5052164;28;51083;-43
2022/10/25 03:35:22;;;;;;;;;1.00;1.00;;;;;-147.17;100.00;-15917.19;5053924;28;51274;-42
2022/10/25 03:37:49;;;;;;;;;1.00;1.00;;;;;-147.17;100.00;-15917.19;5053915;28;51122;-42
2022/10/25 03:40:14;;;;;;;;;2.00;1.00;;;;;-147.17;100.00;-15917.19;5044194;28;52020;-42
2022/10/25 03:42:40;;;;;;;;;2.67;1.00;;;;;-147.17;100.00;-15917.19;5053469;28;51022;-42
2022/10/25 03:45:06;;;;;;;;;2.00;1.33;;;;;-147.17;100.00;-15917.19;5051382;28;51400;-42
2022/10/25 03:47:31;;;;;;;;;3.00;2.00;;;;;-147.17;100.00;-15917.19;5054124;28;51366;-42
2022/10/25 03:49:56;;;;;;;;;2.33;2.33;;;;;-147.17;100.00;-15917.19;5035488;28;51739;-42
2022/10/25 03:52:22;;;;;;;;;2.00;1.33;;;;;-147.17;100.00;-15917.19;5049840;28;50950;-43
2022/10/25 03:54:47;;;;;;;;;1.67;1.33;;;;;-147.17;100.00;-15917.19;5052648;28;50941;-42
2022/10/25 03:57:12;;;;;;;;;3.00;2.33;;;;;-147.17;100.00;-15917.19;5048381;28;51373;-43
2022/10/25 03:59:38;;;;;;;;;1.00;1.00;;;;;-147.17;100.00;-15917.19;5051986;28;52528;-42
2022/10/25 04:02:03;;;;;;;;;2.00;2.00;;;;;-147.17;100.00;-15917.19;5030874;28;50973;-42
2022/10/25 04:04:28;;;;;;;;;2.00;2.00;;;;;-147.17;100.00;-15917.19;5050512;28;51738;-42
2022/10/25 04:06:54;;;;;;;;;3.00;2.00;;;;;-147.17;100.00;-15917.19;5050249;28;50957;-41
2022/10/25 04:09:19;;;;;;;;;1.33;1.00;;;;;-147.17;100.00;-15917.19;5051725;28;51770;-44
2022/10/25 04:11:44;;;;;;;;;3.33;2.00;;;;;-147.17;100.00;-15917.19;5051653;28;51142;-42
2022/10/25 04:14:10;;;;;;;;;2.00;2.00;;;;;-147.17;100.00;-15917.19;5039388;28;51025;-42
2022/10/25 04:16:35;;;;;;;;;3.00;2.00;;;;;-147.17;100.00;-15917.19;5052627;28;50965;-43
2022/10/25 04:19:00;;;;;;;;;2.67;2.00;;;;;-147.17;100.00;-15917.19;5049823;28;51866;-43
2022/10/25 04:21:26;;;;;;;;;4.00;4.00;;;;;-147.17;100.00;-15917.19;5053410;28;50956;-42
2022/10/25 04:23:51;;;;;;;;;2.00;2.00;;;;;-147.17;100.00;-15917.19;5052442;28;51329;-43
2022/10/25 04:26:18;;;;;;;;;2.00;2.00;;;;;-147.17;100.00;-15917.19;5051295;28;51115;-41
2022/10/25 04:28:50;;;;;;;;;4.00;2.67;;;;;-147.17;100.00;-15917.19;5053738;28;51227;-43
2022/10/25 04:31:16;;;;;;;;;3.33;2.67;;;;;-147.17;100.00;-15917.19;5048530;28;51136;-43
2022/10/25 04:33:42;;;;;;;;;2.67;2.67;;;;;-147.17;100.00;-15917.19;5046043;28;51160;-43
2022/10/25 04:36:07;;;;;;;;;5.00;4.67;;;;;-147.17;100.00;-15917.19;5053116;28;51131;-44
2022/10/25 04:38:33;;;;;;;;;5.33;3.00;;;;;-147.17;100.00;-15917.19;5051516;28;51048;-43
2022/10/25 04:40:59;;;;;;;;;3.00;3.00;;;;;-147.17;100.00;-15917.19;5051609;28;51126;-43
2022/10/25 04:43:26;;;;;;;;;4.00;3.00;;;;;-147.17;100.00;-15917.19;5052038;28;51151;-42
2022/10/25 04:45:52;;;;;;;;;1.33;1.00;;;;;-147.17;100.00;-15917.19;5053493;28;50994;-42
2022/10/25 04:48:18;;;;;;;;;3.00;2.00;;;;;-147.17;100.00;-15917.19;5045463;28;51090;-42
2022/10/25 04:50:43;;;;;;;;;3.00;3.00;;;;;-147.17;100.00;-15917.19;5050319;28;51321;-42
2022/10/25 04:53:09;;;;;;;;;4.00;3.00;;;;;-147.17;100.00;-15917.19;5047830;28;51187;-44
2022/10/25 04:55:35;;;;;;;;;4.00;4.00;;;;;-147.17;100.00;-15917.19;5070941;28;50913;-42
2022/10/25 04:58:00;;;;;;;;;3.00;3.00;;;;;-147.17;100.00;-15917.19;5051075;28;51990;-42
2022/10/25 05:00:25;;;;;;;;;3.00;3.00;;;;;-147.17;100.00;-15917.19;5051747;28;51033;-42
2022/10/25 05:02:52;;;;;;;;;4.00;3.33;;;;;-147.17;100.00;-15917.19;5051078;28;51027;-42
2022/10/25 05:05:18;;;;;;;;;3.00;3.00;;;;;-147.17;100.00;-15917.19;5044328;28;51238;-42
2022/10/25 05:07:43;;;;;;;;;6.00;5.00;;;;;-147.17;100.00;-15917.19;5049802;28;52202;-43
2022/10/25 05:10:09;;;;;;;;;5.00;4.00;;;;;-147.17;100.00;-15917.19;5033299;28;51218;-43
2022/10/25 05:12:35;;;;;;;;;4.00;4.00;;;;;-147.17;100.00;-15917.19;5048598;28;51218;-44
2022/10/25 05:15:00;;;;;;;;;4.00;3.00;;;;;-147.17;100.00;-15917.19;5052865;28;51100;-43
2022/10/25 05:17:26;;;;;;;;;4.00;4.00;;;;;-147.17;100.00;-15917.19;5060592;28;52502;-42
2022/10/25 05:19:51;;;;;;;;;3.67;2.67;;;;;-147.17;100.00;-15917.19;5050773;28;56566;-42
2022/10/25 05:22:16;;;;;;;;;5.00;3.67;;;;;-147.17;100.00;-15917.19;5049105;28;51174;-42
2022/10/25 05:24:42;;;;;;;;;4.00;3.33;;;;;-147.17;100.00;-15917.19;5051267;28;50915;-42
2022/10/25 05:27:07;;;;;;;;;3.33;2.33;;;;;-147.17;100.00;-15917.19;5048745;28;52058;-44
2022/10/25 05:29:32;;;;;;;;;4.00;3.00;;;;;-147.17;100.00;-15917.19;5060356;28;57977;-43
2022/10/25 05:31:58;;;;;;;;;4.00;4.00;;;;;-147.17;100.00;-15917.19;5052215;28;51122;-44
2022/10/25 05:34:24;;;;;;;;;7.00;5.00;;;;;-147.17;100.00;-15917.19;5046287;28;51440;-42
2022/10/25 05:36:49;;;;;;;;;5.00;5.00;;;;;-147.17;100.00;-15917.19;5062756;28;51889;-42
2022/10/25 05:39:15;;;;;;;;;4.00;4.00;;;;;-147.17;100.00;-15917.19;5069975;28;51166;-43
2022/10/25 05:41:40;;;;;;;;;7.33;6.33;;;;;-147.17;100.00;-15917.19;5047237;28;51583;-43
2022/10/25 05:44:05;;;;;;;;;6.33;5.67;;;;;-147.17;100.00;-15917.19;5052393;28;50870;-44
2022/10/25 05:46:32;;;;;;;;;6.00;5.00;;;;;-147.17;100.00;-15917.19;5051844;28;52782;-43
2022/10/25 05:48:58;;;;;;;;;5.00;5.00;;;;;-147.17;100.00;-15917.19;5034025;28;51083;-43
2022/10/25 05:51:26;;;;;;;;;6.67;4.67;;;;;-147.17;100.00;-15917.19;5052106;28;50985;-43
2022/10/25 05:53:54;;;;;;;;;7.00;7.00;;;;;-147.17;100.00;-15917.19;5056955;28;51235;-43
2022/10/25 05:56:23;;;;;;;;;6.00;5.00;;;;;-147.17;100.00;-15917.19;5046272;28;52126;-43
2022/10/25 05:58:48;;;;;;;;;5.33;4.33;;;;;-147.17;100.00;-15917.19;5044876;28;50958;-42
2022/10/25 06:01:16;;;;;;;;;5.00;4.33;;;;;-147.17;100.00;-15917.19;5055117;28;50996;-42
2022/10/25 06:03:42;;;;;;;;;4.67;4.67;;;;;-147.17;100.00;-15917.19;5055523;28;50990;-44
2022/10/25 06:06:10;;;;;;;;;5.00;4.00;;;;;-147.17;100.00;-15917.19;5054769;28;50989;-43
2022/10/25 06:08:37;;;;;;;;;4.00;4.00;;;;;-147.17;100.00;-15917.19;5056684;28;50992;-44
2022/10/25 06:11:05;;;;;;;;;4.00;3.00;;;;;-147.17;100.00;-15917.19;5054420;28;50965;-42
2022/10/25 06:13:31;;;;;;;;;4.00;4.00;;;;;-147.17;100.00;-15917.19;5051460;28;51282;-43
2022/10/25 06:15:56;;;;;;;;;5.67;4.33;;;;;-147.17;100.00;-15917.19;5054386;28;51198;-42
2022/10/25 06:18:22;;;;;;;;;4.33;4.33;;;;;-147.17;100.00;-15917.19;5052438;28;51032;-43
2022/10/25 06:20:47;;;;;;;;;5.00;4.00;;;;;-147.17;100.00;-15917.19;5053917;28;50894;-42
2022/10/25 06:23:13;;;;;;;;;7.33;6.00;;;;;-147.17;100.00;-15917.19;5053037;28;51394;-43
2022/10/25 06:25:38;;;;;;;;;6.67;5.33;;;;;-147.17;100.00;-15917.19;5051842;28;51852;-43
2022/10/25 06:28:04;;;;;;;;;5.67;5.67;;;;;-147.17;100.00;-15917.19;5052868;28;51063;-42
2022/10/25 06:30:31;;;;;;;;;5.00;5.00;;;;;-147.17;100.00;-15917.19;5053476;28;51175;-42
2022/10/25 06:32:56;;;;;;;;;7.33;6.33;;;;;-147.17;100.00;-15917.19;5054875;28;50985;-43
2022/10/25 06:35:22;;;;;;;;;6.67;6.00;;;;;-147.17;100.00;-15917.19;5052563;28;58379;-43
2022/10/25 06:37:47;;;;;;;;;6.33;5.00;;;;;-147.17;100.00;-15917.19;5054545;28;51122;-44
2022/10/25 06:40:12;;;;;;;;;6.00;6.00;;;;;-147.17;100.00;-15917.19;5054092;28;51047;-42
2022/10/25 06:42:38;;;;;;;;;2.67;1.00;;;;;-147.17;100.00;-15917.19;5034957;28;51379;-43
2022/10/25 06:45:03;;;;;;;;;5.67;4.67;;;;;-147.17;100.00;-15917.19;5047410;28;59243;-44
2022/10/25 06:47:29;;;;;;;;;8.33;8.00;;;;;-147.17;100.00;-15917.19;5054484;28;50996;-43
2022/10/25 06:49:54;;;;;;;;;4.00;3.00;;;;;-147.17;100.00;-15917.19;5054770;28;50977;-43
2022/10/25 06:52:19;;;;;;;;;4.00;4.00;;;;;-147.17;100.00;-15917.19;5054730;28;51107;-43
2022/10/25 06:54:45;;;;;;;;;2.00;2.00;;;;;-147.17;100.00;-15917.19;5053921;28;52624;-43
2022/10/25 06:57:10;;;;;;;;;9.00;7.00;;;;;-147.17;100.00;-15917.19;5053969;28;51108;-43
2022/10/25 06:59:35;;;;;;;;;6.00;5.67;;;;;-147.17;100.00;-15917.19;5053917;28;56659;-43
2022/10/25 07:02:01;;;;;;;;;4.00;3.33;;;;;-147.17;100.00;-15917.19;5051652;28;51280;-42
2022/10/25 07:04:26;;;;;;;;;4.00;3.33;;;;;-147.17;100.00;-15917.19;5053167;28;52158;-43
2022/10/25 07:06:52;;;;;;;;;8.67;7.00;;;;;-147.17;100.00;-15917.19;5054105;28;50942;-42
2022/10/25 07:09:17;;;;;;;;;6.67;4.67;;;;;-147.17;100.00;-15917.19;5054047;28;51106;-44
2022/10/25 07:11:44;;;;;;;;;7.33;7.33;;;;;-147.17;100.00;-15917.19;5053909;28;51076;-43
2022/10/25 07:14:10;;;;;;;;;4.67;4.67;;;;;-147.17;100.00;-15917.19;5054199;28;50897;-43
2022/10/25 07:16:36;;;;;;;;;4.00;4.00;;;;;-147.17;100.00;-15917.19;5047447;28;50967;-43
2022/10/25 07:19:03;;;;;;;;;5.00;4.00;;;;;-147.17;100.00;-15917.19;5051043;28;51355;-43
2022/10/25 07:21:30;;;;;;;;;4.67;3.67;;;;;-147.17;100.00;-15917.19;5052431;28;51139;-43
2022/10/25 07:23:55;;;;;;;;;3.00;2.33;;;;;-147.17;100.00;-15917.19;5052615;28;51119;-43
2022/10/25 07:26:33;;;;;;;;;6.00;4.00;;;;;-147.17;100.00;-15917.19;5055122;28;51073;-43
2022/10/25 07:29:01;;;;;;;;;3.00;2.67;;;;;-147.17;100.00;-15917.19;5074182;28;50940;-44
2022/10/25 07:31:32;;;;;;;;;3.67;3.67;;;;;-147.17;100.00;-15917.19;5067811;28;51097;-44
2022/10/25 07:34:00;;;;;;;;;4.33;3.67;;;;;-147.17;100.00;-15917.19;5053731;28;50942;-43
2022/10/25 07:36:26;;;;;;;;;2.00;2.00;;;;;-147.17;100.00;-15917.19;5053342;28;51013;-43
2022/10/25 07:38:51;;;;;;;;;5.00;4.67;;;;;-147.17;100.00;-15917.19;5053686;28;51042;-42
2022/10/25 07:41:17;;;;;;;;;5.67;5.00;;;;;-147.17;100.00;-15917.19;5047170;28;53918;-43
2022/10/25 07:43:42;;;;;;;;;6.67;4.33;;;;;-147.17;100.00;-15917.19;5065530;28;51702;-42
2022/10/25 07:46:08;;;;;;;;;5.67;4.00;;;;;-147.17;100.00;-15917.19;5053638;28;51172;-43
2022/10/25 07:48:34;;;;;;;;;4.67;3.33;;;;;-147.17;100.00;-15917.19;5035446;28;51093;-43
2022/10/25 07:51:04;;;;;;;;;3.67;3.00;;;;;-147.17;100.00;-15917.19;5035600;28;50939;-44
2022/10/25 07:53:29;;;;;;;;;4.00;3.00;;;;;-147.17;100.00;-15917.19;5049906;28;51988;-43
2022/10/25 07:55:54;;;;;;;;;7.00;6.67;;;;;-147.17;100.00;-15917.19;5060760;28;51062;-43
2022/10/25 07:58:20;;;;;;;;;9.00;6.00;;;;;-147.17;100.00;-15917.19;5053373;28;51030;-43
2022/10/25 08:00:46;;;;;;;;;6.00;5.67;;;;;-147.17;100.00;-15917.19;5047669;28;50998;-43
2022/10/25 08:03:16;;;;;;;;;6.00;5.00;;;;;-147.17;100.00;-15917.19;5058172;28;51845;-43
2022/10/25 08:05:46;;;;;;;;;6.67;6.67;;;;;-147.17;100.00;-15917.19;5072715;28;51063;-42
2022/10/25 08:08:12;;;;;;;;;1.00;1.00;;;;;-147.17;100.00;-15917.19;5062006;28;51127;-44
2022/10/25 08:10:38;;;;;;;;;3.00;3.00;;;;;-147.17;100.00;-15917.19;5034985;28;50998;-44
2022/10/25 08:13:03;;;;;;;;;5.00;5.00;;;;;-147.17;100.00;-15917.19;5052869;28;52034;-44
2022/10/25 08:15:28;;;;;;;;;6.00;5.67;;;;;-147.17;100.00;-15917.19;5034905;28;51046;-44
2022/10/25 08:18:01;;;;;;;;;3.00;2.33;;;;;-147.17;100.00;-15917.19;5053436;28;51030;-43
2022/10/25 08:20:27;;;;;;;;;4.33;3.67;;;;;-147.17;100.00;-15917.19;5053107;28;51360;-44
2022/10/25 08:22:56;;;;;;;;;6.00;5.00;;;;;-147.17;100.00;-15917.19;5053142;28;51084;-43
2022/10/25 08:25:22;;;;;;;;;6.00;5.00;;;;;-147.17;100.00;-15917.19;5052771;28;50977;-51
2022/10/25 08:27:47;;;;;;;;;5.00;3.67;;;;;-147.17;100.00;-15917.19;5053358;28;51472;-43
2022/10/25 08:30:12;;;;;;;;;2.67;2.67;;;;;-147.17;100.00;-15917.19;5053296;28;51434;-44
2022/10/25 08:32:38;;;;;;;;;4.67;4.67;;;;;-147.17;100.00;-15917.19;5034823;28;52628;-44
2022/10/25 08:35:03;;;;;;;;;4.33;4.00;;;;;-147.17;100.00;-15917.19;5052953;28;50992;-44
2022/10/25 08:37:29;;;;;;;;;5.33;5.33;;;;;-147.17;100.00;-15917.19;5035167;28;51156;-44
2022/10/25 08:39:54;;;;;;;;;5.33;4.67;;;;;-147.17;100.00;-15917.19;5053218;28;50965;-44
2022/10/25 08:42:42;;;;;;;;;3.33;3.33;;;;;-147.17;100.00;-15917.19;5052189;28;51825;-44
2022/10/25 08:45:17;;;;;;;;;4.67;2.67;;;;;-147.17;100.00;-15917.19;5052645;28;51039;-44
2022/10/25 08:47:45;;;;;;;;;3.00;3.00;;;;;-147.17;100.00;-15917.19;5052982;28;51012;-43
2022/10/25 08:50:21;;;;;;;;;4.00;3.67;;;;;-147.17;100.00;-15917.19;5052838;28;51035;-43
2022/10/25 08:52:54;;;;;;;;;5.00;4.00;;;;;-147.17;100.00;-4589.22;5040065;28;51859;-44
2022/10/25 08:55:32;;;;;;;;;3.00;3.00;;;;;-147.17;100.00;4530.72;5034700;28;51143;-44
2022/10/25 08:57:59;;;;;;;;;1.67;1.00;;;;;-147.17;100.00;-3086.56;5047884;28;51226;-44
2022/10/25 09:00:34;;;;;;;;;3.00;3.00;;;;;-147.17;100.00;-10115.16;5034669;28;51136;-43
2022/10/25 09:03:01;;;;;;;;;3.00;2.00;;;;;-147.17;100.00;-15917.19;5033651;28;52957;-43
2022/10/25 09:05:39;;;;;;;;;4.00;4.00;;;;;-147.17;100.00;-15917.19;5034485;28;50997;-42
2022/10/25 09:08:35;;;;;;;;;4.00;4.00;;;;;-147.17;100.00;-15917.19;5065282;28;51089;-44
2022/10/25 09:11:32;;;;;;;;;1.33;1.33;;;;;-147.17;100.00;-15917.19;5051442;28;52202;-42
2022/10/25 09:14:19;;;;;;;;;3.00;2.67;;;;;-147.17;100.00;-15917.19;5052116;28;51071;-43
2022/10/25 09:16:56;;;;;;;;;2.00;2.00;;;;;-147.17;100.00;-15917.19;5052210;28;50973;-42
2022/10/25 09:19:34;;;;;;;;;1.00;0.33;;;;;-147.17;100.00;-15917.19;5020993;28;51248;-43
2022/10/25 09:22:02;;;;;;;;;1.00;1.00;;;;;-147.17;100.00;-15917.19;5052298;28;51150;-43
2022/10/25 09:24:49;;;;;;;;;0.33;0.00;;;;;-147.17;100.00;-15917.19;5051215;28;51960;-43
2022/10/25 09:27:25;;;;;;;;;1.00;1.00;;;;;-147.17;100.00;-15917.19;5050767;28;50844;-44
2022/10/25 09:30:00;;;;;;;;;0.00;0.00;;;;;-147.17;100.00;-15917.19;5052185;28;50945;-44
2022/10/25 09:32:37;;;;;;;;;0.67;0.67;;;;;-147.17;100.00;-15917.19;5034146;28;51368;-43
2022/10/25 09:35:05;;;;;;;;;2.00;1.00;;;;;-147.17;100.00;-15917.19;5033417;28;51203;-43
2022/10/25 09:37:40;;;;;;;;;1.33;0.00;;;;;-147.17;100.00;-15917.19;5051919;28;51149;-43
2022/10/25 09:40:13;;;;;;;;;1.00;1.00;;;;;-147.17;100.00;-15917.19;5051517;28;50945;-43
2022/10/25 09:42:52;;;;;;;;;2.00;1.00;;;;;-147.17;100.00;-15917.19;5033276;28;51239;-42
2022/10/25 09:45:29;;;;;;;;;1.00;0.67;;;;;-147.17;100.00;-15917.19;5051146;28;51907;-44
2022/10/25 09:48:21;;;;;;;;;6.33;5.00;;;;;-147.17;100.00;-15917.19;5051780;28;51093;-43
2022/10/25 09:50:57;;;;;;;;;1.00;1.00;;;;;-147.17;100.00;-15917.19;5051736;28;51076;-43
2022/10/25 09:53:23;;;;;;;;;0.00;0.00;;;;;-147.17;100.00;-15915.72;5048888;28;51011;-44
2022/10/25 09:55:57;;;;;;;;;0.00;0.00;;;;;-147.17;100.00;-15668.00;5067927;28;51894;-44
2022/10/25 09:58:26;;;;;;;;;0.00;0.00;;;;;-147.17;100.00;-14429.16;5051237;28;50961;-44
2022/10/25 10:00:58;;;;;;;;;0.00;0.00;;;;;-147.17;100.00;-10462.09;5045408;28;50959;-43
2022/10/25 10:03:29;;;;;;;;;3.00;1.00;;;;;-147.17;100.00;-10710.16;5038518;28;50886;-43
2022/10/25 10:06:11;;;;;;;;;0.33;0.00;;;;;-147.17;100.00;-9965.91;5051249;28;52222;-44
2022/10/25 10:08:43;;;;;;;;;1.33;1.33;;;;;-147.17;100.00;-11206.22;5051309;28;51186;-43
2022/10/25 10:11:15;;;;;;;;;0.00;0.00;;;;;-147.17;100.00;-11454.25;5050962;28;50932;-43
2022/10/25 10:14:03;;;;;;;;;2.33;2.00;;;;;-147.17;100.00;-12446.13;5051411;28;50970;-44
2022/10/25 10:16:34;;;;;;;;;4.67;2.33;;;;;-147.17;100.00;-9965.91;5057440;28;52196;-44
2022/10/25 10:19:14;;;;;;;;;3.33;2.00;;;;;-147.17;100.00;-9469.69;5064652;28;52253;-44
2022/10/25 10:21:45;;;;;;;;;53.75;44.75;;;;;-147.17;100.00;-10462.09;5050963;28;51105;-44
2022/10/25 10:24:22;;;;;;;;;2.00;2.00;;;;;-147.17;100.00;-12198.19;5051128;28;51076;-43
2022/10/25 10:26:54;;;;;;;;;3.00;3.00;;;;;-147.17;100.00;-15420.25;5050433;28;51231;-43
2022/10/25 10:29:21;;;;;;;;;4.67;3.67;;;;;-147.17;100.00;-15917.19;5051133;28;51037;-45
2022/10/25 10:31:50;;;;;;;;;3.00;3.00;;;;;-147.17;100.00;-15917.19;5051190;28;50968;-44
2022/10/25 10:34:35;;;;;;;;;7.00;6.00;;;;;-147.17;100.00;-15915.72;5051159;28;51171;-44
2022/10/25 10:37:19;;;;;;;;;8.00;7.00;;;;;-147.17;100.00;-15668.00;5067511;28;51320;-43
2022/10/25 10:39:53;;;;;;;;;4.00;3.00;;;;;-147.17;100.00;-15172.50;5072411;28;50912;-44
2022/10/25 10:42:28;;;;;;;;;5.00;4.00;;;;;-147.17;100.00;-14181.31;5073461;28;51252;-44
2022/10/25 10:45:14;;;;;;;;;3.00;2.00;;;;;-147.17;100.00;-13685.63;5059814;28;51089;-42
2022/10/25 10:47:42;;;;;;;;;3.33;3.33;;;;;-147.17;100.00;-13189.88;5019560;28;51994;-43
2022/10/25 10:50:23;;;;;;;;;2.00;2.00;;;;;-147.17;100.00;-12941.97;5054245;28;51084;-43
2022/10/25 10:52:54;;;;;;;;;6.67;5.67;;;;;-147.17;100.00;-11702.25;5053448;28;51118;-44
2022/10/25 10:55:56;;;;;;;;;4.00;3.00;;;;;-147.17;100.00;-10710.16;5040939;28;51044;-43
2022/10/25 10:58:35;;;;;;;;;4.67;4.00;;;;;-147.17;100.00;-10462.09;4952013;28;51932;-43
2022/10/25 11:01:05;;;;;;;;;3.00;3.00;;;;;-147.17;100.00;-10462.09;5032621;28;51275;-44
2022/10/25 11:03:40;;;;;;;;;2.33;1.00;;;;;-147.17;100.00;-9717.81;5074314;28;51254;-42
2022/10/25 11:06:09;;;;;;;;;5.00;4.33;;;;;-147.17;100.00;-9469.69;5074401;28;51306;-44
2022/10/25 11:08:34;;;;;;;;;3.00;2.67;;;;;-147.17;100.00;-9965.91;5063741;28;54159;-44
2022/10/25 11:11:15;;;;;;;;;4.00;4.00;;;;;-147.17;100.00;-6490.94;5052936;28;51038;-44
2022/10/25 11:13:56;;;;;;;;;3.00;2.00;;;;;-147.17;100.00;-2267.06;5053538;28;50923;-45